createdAt,value
2023-02-22T00:02:32.619Z,2.80
2023-02-22T00:05:00.731Z,2.43
2023-02-22T00:07:30.212Z,3.00
2023-02-22T00:10:01.032Z,2.70
2023-02-22T00:12:44.184Z,2.40
2023-02-22T00:15:15.445Z,1.90
2023-02-22T00:17:44.789Z,2.57
2023-02-22T00:20:18.761Z,2.03
2023-02-22T00:22:49.267Z,2.40
2023-02-22T00:25:20.728Z,2.37
2023-02-22T00:28:05.057Z,2.50
2023-02-22T00:30:36.447Z,1.87
2023-02-22T00:33:10.007Z,2.40
2023-02-22T00:35:47.910Z,2.00
2023-02-22T00:38:20.076Z,1.90
2023-02-22T00:40:50.934Z,2.20
2023-02-22T00:43:25.155Z,2.23
2023-02-22T00:45:54.227Z,1.97
2023-02-22T00:48:26.774Z,2.20
2023-02-22T00:50:58.556Z,2.20
2023-02-22T00:53:31.982Z,2.50
2023-02-22T00:56:02.145Z,2.50
2023-02-22T00:58:35.022Z,2.30
2023-02-22T01:01:04.316Z,1.90
2023-02-22T01:03:35.309Z,2.37
2023-02-22T01:06:09.683Z,2.40
2023-02-22T01:08:41.266Z,2.40
2023-02-22T01:11:10.499Z,2.27
2023-02-22T01:13:47.954Z,1.70
2023-02-22T01:16:22.476Z,2.03
2023-02-22T01:18:54.196Z,1.97
2023-02-22T01:21:26.524Z,2.10
2023-02-22T01:23:56.670Z,1.90
2023-02-22T01:26:38.236Z,2.30
2023-02-22T01:29:15.272Z,1.90
2023-02-22T01:31:52.224Z,2.40
2023-02-22T01:34:26.461Z,2.10
2023-02-22T01:37:03.264Z,1.93
2023-02-22T01:39:33.994Z,2.17
2023-02-22T01:42:03.644Z,1.90
2023-02-22T01:44:37.984Z,1.63
2023-02-22T01:47:11.995Z,2.27
2023-02-22T01:49:43.637Z,1.70
2023-02-22T01:52:19.860Z,2.47
2023-02-22T01:54:56.424Z,2.50
2023-02-22T01:57:31.681Z,1.73
2023-02-22T02:00:13.755Z,2.40
2023-02-22T02:02:45.903Z,2.43
2023-02-22T02:05:15.613Z,2.40
2023-02-22T02:07:46.673Z,2.67
2023-02-22T02:10:26.784Z,2.00
2023-02-22T02:13:06.358Z,2.33
2023-02-22T02:15:36.493Z,1.73
2023-02-22T02:18:09.005Z,1.73
2023-02-22T02:20:47.941Z,2.50
2023-02-22T02:23:43.553Z,2.00
2023-02-22T02:26:32.774Z,2.03
2023-02-22T02:29:32.669Z,1.77
2023-02-22T02:32:44.271Z,2.37
2023-02-22T02:35:22.883Z,2.37
2023-02-22T02:37:58.023Z,2.23
2023-02-22T02:40:33.500Z,2.20
2023-02-22T02:43:06.519Z,2.37
2023-02-22T02:45:46.565Z,2.20
2023-02-22T02:48:20.909Z,2.00
2023-02-22T02:50:59.578Z,2.00
2023-02-22T02:53:35.864Z,2.07
2023-02-22T02:56:10.238Z,2.20
2023-02-22T02:58:55.725Z,2.20
2023-02-22T03:01:51.556Z,2.27
2023-02-22T03:04:25.572Z,2.30
2023-02-22T03:07:23.688Z,2.27
2023-02-22T03:10:11.605Z,2.07
2023-02-22T03:12:48.033Z,2.10
2023-02-22T03:15:27.646Z,1.90
2023-02-22T03:18:10.450Z,2.40
2023-02-22T03:20:49.848Z,2.03
2023-02-22T03:23:38.791Z,2.20
2023-02-22T03:26:14.391Z,2.70
2023-02-22T03:28:46.821Z,2.20
2023-02-22T03:31:23.567Z,2.37
2023-02-22T03:33:56.064Z,2.40
2023-02-22T03:36:30.765Z,2.30
2023-02-22T03:39:04.347Z,2.67
2023-02-22T03:41:38.923Z,2.33
2023-02-22T03:44:10.809Z,2.73
2023-02-22T03:46:42.117Z,2.20
2023-02-22T03:49:21.312Z,2.53
2023-02-22T03:51:50.301Z,2.60
2023-02-22T03:54:37.130Z,2.30
2023-02-22T03:57:14.389Z,2.23
2023-02-22T03:59:49.293Z,2.40
2023-02-22T04:02:22.046Z,2.20
2023-02-22T04:05:00.623Z,2.73
2023-02-22T04:07:31.100Z,2.40
2023-02-22T04:10:05.357Z,2.60
2023-02-22T04:12:36.559Z,2.60
2023-02-22T04:15:08.817Z,2.80
2023-02-22T04:17:42.398Z,2.53
2023-02-22T04:20:19.887Z,2.73
2023-02-22T04:22:56.262Z,2.50
2023-02-22T04:25:37.453Z,2.57
2023-02-22T04:28:23.887Z,2.40
2023-02-22T04:30:59.848Z,2.57
2023-02-22T04:33:38.501Z,3.00
2023-02-22T04:36:19.881Z,2.70
2023-02-22T04:38:52.257Z,2.67
2023-02-22T04:41:36.073Z,2.97
2023-02-22T04:44:05.432Z,2.40
2023-02-22T04:46:35.429Z,2.70
2023-02-22T04:49:05.102Z,3.30
2023-02-22T04:51:41.356Z,2.50
2023-02-22T04:54:14.210Z,2.63
2023-02-22T04:56:59.507Z,2.43
2023-02-22T04:59:36.733Z,2.87
2023-02-22T05:02:06.500Z,2.90
2023-02-22T05:04:39.975Z,3.03
2023-02-22T05:07:10.760Z,2.70
2023-02-22T05:09:44.080Z,2.80
2023-02-22T05:12:17.819Z,2.60
2023-02-22T05:14:46.164Z,3.23
2023-02-22T05:17:15.155Z,3.40
2023-02-22T05:19:45.089Z,2.80
2023-02-22T05:22:13.223Z,3.07
2023-02-22T05:24:45.014Z,2.77
2023-02-22T05:27:23.088Z,2.60
2023-02-22T05:30:03.350Z,3.10
2023-02-22T05:35:25.851Z,3.00
2023-02-22T05:37:56.898Z,2.57
2023-02-22T05:40:30.952Z,3.13
2023-02-22T05:43:12.092Z,2.93
2023-02-22T05:45:51.144Z,2.67
2023-02-22T05:48:31.827Z,3.17
2023-02-22T05:51:02.741Z,2.93
2023-02-22T05:53:33.820Z,3.57
2023-02-22T05:56:03.854Z,3.10
2023-02-22T05:58:33.556Z,3.33
2023-02-22T06:01:11.291Z,2.80
2023-02-22T06:03:40.206Z,3.30
2023-02-22T06:06:19.654Z,3.30
2023-02-22T06:08:58.860Z,3.37
2023-02-22T06:11:30.521Z,3.10
2023-02-22T06:13:59.769Z,3.70
2023-02-22T06:16:36.440Z,3.23
2023-02-22T06:19:19.108Z,3.57
2023-02-22T06:21:52.778Z,3.00
2023-02-22T06:24:30.606Z,3.00
2023-02-22T06:27:02.957Z,3.17
2023-02-22T06:29:34.601Z,3.47
2023-02-22T06:32:11.615Z,3.20
2023-02-22T06:34:41.159Z,2.63
2023-02-22T06:37:13.305Z,2.20
2023-02-22T06:39:50.021Z,3.20
2023-02-22T06:42:22.242Z,2.93
2023-02-22T06:44:51.920Z,3.27
2023-02-22T06:47:38.574Z,2.70
2023-02-22T06:50:09.322Z,3.27
2023-02-22T06:52:48.027Z,3.40
2023-02-22T06:55:20.045Z,3.30
2023-02-22T06:57:55.795Z,3.67
2023-02-22T07:00:28.540Z,4.63
2023-02-22T07:03:13.284Z,4.30
2023-02-22T07:05:55.526Z,3.70
2023-02-22T07:08:29.299Z,4.20
2023-02-22T07:11:00.965Z,3.73
2023-02-22T07:13:29.743Z,3.77
2023-02-22T07:15:57.874Z,4.40
2023-02-22T07:18:30.947Z,3.70
2023-02-22T07:21:05.260Z,3.30
2023-02-22T07:23:39.683Z,3.63
2023-02-22T07:26:08.591Z,3.50
2023-02-22T07:28:37.293Z,3.00
2023-02-22T07:31:11.529Z,3.40
2023-02-22T07:33:51.371Z,3.43
2023-02-22T07:36:26.951Z,3.30
2023-02-22T07:38:55.318Z,2.97
2023-02-22T07:41:29.266Z,3.27
2023-02-22T07:44:00.786Z,3.23
2023-02-22T07:46:29.880Z,3.33
2023-02-22T07:49:07.299Z,2.80
2023-02-22T07:51:36.486Z,2.80
2023-02-22T07:54:10.457Z,2.73
2023-02-22T07:56:46.255Z,2.90
2023-02-22T07:59:15.467Z,3.60
2023-02-22T08:01:47.204Z,3.67
2023-02-22T08:04:17.770Z,3.30
2023-02-22T08:06:50.255Z,3.90
2023-02-22T08:09:18.407Z,4.27
2023-02-22T08:11:57.602Z,2.77
2023-02-22T08:14:32.855Z,3.10
2023-02-22T08:17:04.440Z,3.27
2023-02-22T08:19:39.822Z,3.20
2023-02-22T08:22:16.601Z,3.83
2023-02-22T08:24:45.356Z,3.60
2023-02-22T08:27:17.623Z,2.70
2023-02-22T08:29:49.012Z,3.30
2023-02-22T08:32:25.708Z,3.77
2023-02-22T08:34:57.687Z,3.37
2023-02-22T08:37:26.374Z,3.90
2023-02-22T08:39:57.282Z,3.70
2023-02-22T08:42:39.713Z,4.00
2023-02-22T08:45:11.312Z,4.80
2023-02-22T08:47:45.913Z,3.83
2023-02-22T08:50:33.430Z,3.57
2023-02-22T08:53:05.439Z,3.10
2023-02-22T08:55:43.435Z,3.30
2023-02-22T08:58:19.975Z,2.93
2023-02-22T09:00:51.159Z,3.63
2023-02-22T09:03:20.796Z,2.77
2023-02-22T09:05:53.402Z,2.83
2023-02-22T09:08:28.897Z,3.00
2023-02-22T09:10:57.409Z,3.03
2023-02-22T09:13:34.423Z,3.57
2023-02-22T09:16:06.120Z,3.03
2023-02-22T09:18:44.542Z,3.20
2023-02-22T09:21:20.445Z,3.13
2023-02-22T09:23:56.869Z,3.00
2023-02-22T09:26:27.707Z,3.27
2023-02-22T09:29:00.544Z,3.73
2023-02-22T09:31:32.293Z,4.40
2023-02-22T09:34:04.358Z,3.83
2023-02-22T09:36:36.403Z,4.90
2023-02-22T09:39:07.654Z,4.77
2023-02-22T09:41:43.489Z,4.67
2023-02-22T09:44:26.784Z,4.10
2023-02-22T09:46:59.127Z,5.00
2023-02-22T09:49:34.159Z,5.30
2023-02-22T09:52:10.011Z,4.37
2023-02-22T09:54:43.487Z,4.13
2023-02-22T09:57:20.717Z,4.10
2023-02-22T10:00:12.983Z,3.73
2023-02-22T10:02:48.054Z,3.80
2023-02-22T10:05:28.541Z,4.00
2023-02-22T10:08:06.189Z,3.80
2023-02-22T10:10:39.402Z,3.50
2023-02-22T10:13:21.743Z,4.60
2023-02-22T10:15:58.298Z,3.70
2023-02-22T10:19:12.184Z,3.97
2023-02-22T10:21:51.215Z,4.07
2023-02-22T10:24:38.577Z,3.60
2023-02-22T10:27:13.281Z,3.53
2023-02-22T10:29:50.360Z,3.37
2023-02-22T10:32:23.230Z,3.33
2023-02-22T10:34:54.358Z,3.27
2023-02-22T10:37:29.896Z,3.63
2023-02-22T10:40:23.087Z,3.13
2023-02-22T10:42:57.806Z,3.50
2023-02-22T10:45:38.092Z,3.10
2023-02-22T10:48:24.022Z,2.93
2023-02-22T10:51:09.039Z,3.00
2023-02-22T10:53:48.542Z,2.90
2023-02-22T10:56:30.854Z,2.93
2023-02-22T10:59:02.492Z,3.17
2023-02-22T11:01:40.852Z,3.33
2023-02-22T11:04:16.217Z,3.50
2023-02-22T11:06:51.388Z,3.57
2023-02-22T11:09:23.082Z,3.30
2023-02-22T11:12:22.025Z,2.93
2023-02-22T11:14:52.758Z,3.57
2023-02-22T11:17:34.231Z,3.47
2023-02-22T11:20:03.768Z,3.30
2023-02-22T11:22:41.174Z,3.63
2023-02-22T11:25:09.985Z,4.30
2023-02-22T11:27:43.793Z,4.70
2023-02-22T11:30:29.320Z,4.20
2023-02-22T11:33:01.660Z,4.07
2023-02-22T11:35:47.053Z,3.80
2023-02-22T11:38:30.256Z,3.90
2023-02-22T11:41:40.495Z,3.90
2023-02-22T11:44:30.884Z,4.90
2023-02-22T11:47:07.105Z,4.37
2023-02-22T11:49:48.160Z,3.33
2023-02-22T11:52:31.022Z,4.20
2023-02-22T11:55:40.097Z,3.70
2023-02-22T11:58:50.749Z,3.20
2023-02-22T12:01:33.430Z,3.40
2023-02-22T12:04:39.657Z,4.33
2023-02-22T12:07:48.670Z,4.93
2023-02-22T12:10:47.302Z,5.07
2023-02-22T12:13:33.344Z,4.63
2023-02-22T12:16:08.157Z,4.53
2023-02-22T12:18:45.613Z,3.83
2023-02-22T12:21:17.905Z,3.90
2023-02-22T12:23:52.251Z,5.00
2023-02-22T12:26:29.105Z,3.60
2023-02-22T12:29:00.342Z,4.63
2023-02-22T12:31:42.510Z,3.17
2023-02-22T12:34:29.774Z,3.63
2023-02-22T12:37:11.886Z,3.83
2023-02-22T12:39:54.147Z,3.43
2023-02-22T12:42:31.287Z,3.67
2023-02-22T12:45:17.061Z,4.10
2023-02-22T12:47:56.085Z,3.70
2023-02-22T12:50:34.810Z,3.70
2023-02-22T12:53:15.793Z,3.50
2023-02-22T12:56:00.602Z,3.77
2023-02-22T12:58:35.178Z,3.70
2023-02-22T13:01:07.335Z,3.17
2023-02-22T13:03:39.394Z,3.60
2023-02-22T13:06:34.725Z,3.27
2023-02-22T13:09:13.018Z,3.53
2023-02-22T13:11:47.547Z,4.13
2023-02-22T13:14:35.908Z,3.77
2023-02-22T13:17:14.206Z,4.17
2023-02-22T13:19:48.796Z,3.93
2023-02-22T13:22:35.641Z,3.37
2023-02-22T13:25:16.680Z,3.47
2023-02-22T13:27:55.397Z,3.40
2023-02-22T13:30:29.079Z,3.60
2023-02-22T13:33:18.310Z,3.17
2023-02-22T13:36:08.901Z,3.57
2023-02-22T13:39:29.837Z,2.73
2023-02-22T13:42:44.382Z,2.60
2023-02-22T13:45:54.977Z,3.03
2023-02-22T13:49:00.473Z,2.10
2023-02-22T13:51:47.528Z,2.20
2023-02-22T13:54:31.312Z,2.30
2023-02-22T13:57:05.227Z,2.50
2023-02-22T13:59:47.280Z,1.93
2023-02-22T14:02:36.725Z,2.20
2023-02-22T14:05:37.230Z,2.50
2023-02-22T14:08:07.203Z,2.50
2023-02-22T14:10:52.102Z,2.60
2023-02-22T14:13:33.425Z,1.80
2023-02-22T14:16:37.775Z,2.00
2023-02-22T14:19:17.017Z,1.80
2023-02-22T14:22:06.872Z,2.20
2023-02-22T14:24:44.087Z,1.80
2023-02-22T14:27:20.642Z,2.27
2023-02-22T14:29:55.084Z,1.87
2023-02-22T14:32:44.725Z,2.13
2023-02-22T14:35:44.606Z,2.00
2023-02-22T14:38:17.865Z,2.50
2023-02-22T14:40:49.601Z,3.00
2023-02-22T14:43:33.380Z,2.70
2023-02-22T14:46:05.478Z,2.00
2023-02-22T14:48:42.940Z,2.40
2023-02-22T14:51:25.203Z,2.20
2023-02-22T14:54:01.409Z,2.40
2023-02-22T14:56:37.215Z,2.43
2023-02-22T14:59:28.231Z,2.43
2023-02-22T15:02:11.733Z,2.70
2023-02-22T15:04:44.117Z,2.90
2023-02-22T15:07:28.342Z,2.80
2023-02-22T15:10:26.499Z,2.83
2023-02-22T15:13:09.208Z,2.60
2023-02-22T15:15:44.126Z,2.60
2023-02-22T15:18:23.290Z,2.60
2023-02-22T15:20:58.473Z,2.87
2023-02-22T15:23:33.371Z,3.10
2023-02-22T15:26:05.857Z,2.97
2023-02-22T15:28:36.733Z,2.53
2023-02-22T15:31:33.429Z,2.97
2023-02-22T15:34:22.805Z,2.40
2023-02-22T15:36:55.159Z,3.50
2023-02-22T15:39:29.729Z,2.97
2023-02-22T15:42:09.582Z,2.60
2023-02-22T15:44:48.495Z,2.70
2023-02-22T15:47:25.994Z,3.13
2023-02-22T15:50:18.862Z,2.73
2023-02-22T15:53:01.596Z,3.30
2023-02-22T15:55:43.264Z,2.93
2023-02-22T15:58:25.447Z,2.73
2023-02-22T16:01:01.721Z,2.80
2023-02-22T16:03:58.592Z,3.03
2023-02-22T16:06:45.089Z,3.13
2023-02-22T16:09:26.018Z,3.23
2023-02-22T16:12:10.762Z,2.90
2023-02-22T16:14:50.432Z,3.17
2023-02-22T16:17:49.502Z,3.23
2023-02-22T16:20:41.986Z,4.27
2023-02-22T16:23:30.008Z,3.50
2023-02-22T16:26:29.950Z,3.40
2023-02-22T16:29:14.792Z,3.93
2023-02-22T16:31:45.918Z,3.70
2023-02-22T16:34:18.316Z,4.23
2023-02-22T16:36:58.374Z,3.83
2023-02-22T16:39:41.826Z,3.70
2023-02-22T16:42:12.919Z,4.20
2023-02-22T16:44:49.460Z,4.10
2023-02-22T16:47:31.322Z,4.60
2023-02-22T16:50:00.084Z,3.90
2023-02-22T16:52:43.430Z,4.20
2023-02-22T16:55:15.698Z,4.40
2023-02-22T16:57:56.247Z,4.00
2023-02-22T17:00:38.018Z,4.37
2023-02-22T17:03:09.390Z,4.20
2023-02-22T17:05:53.630Z,6.10
2023-02-22T17:08:35.241Z,6.80
2023-02-22T17:11:15.122Z,6.20
2023-02-22T17:13:55.391Z,6.17
2023-02-22T17:16:30.369Z,5.53
2023-02-22T17:19:07.499Z,6.10
2023-02-22T17:21:46.439Z,6.00
2023-02-22T17:24:35.102Z,5.90
2023-02-22T17:27:16.010Z,6.80
2023-02-22T17:29:49.597Z,5.87
2023-02-22T17:32:23.957Z,5.60
2023-02-22T17:35:05.561Z,5.40
2023-02-22T17:37:39.806Z,6.03
2023-02-22T17:40:20.784Z,6.30
2023-02-22T17:42:58.890Z,7.03
2023-02-22T17:45:46.398Z,6.00
2023-02-22T17:48:53.656Z,7.50
2023-02-22T17:51:28.850Z,8.57
2023-02-22T17:53:57.961Z,8.17
2023-02-22T17:56:53.262Z,7.30
2023-02-22T17:59:46.554Z,7.37
2023-02-22T18:02:30.262Z,6.93
2023-02-22T18:05:09.576Z,6.80
2023-02-22T18:07:41.508Z,7.23
2023-02-22T18:10:15.494Z,6.53
2023-02-22T18:13:04.445Z,7.10
2023-02-22T18:15:51.712Z,7.30
2023-02-22T18:18:30.738Z,6.90
2023-02-22T18:21:04.339Z,7.63
2023-02-22T18:23:42.882Z,6.17
2023-02-22T18:26:26.766Z,6.60
2023-02-22T18:29:10.726Z,6.70
2023-02-22T18:31:58.607Z,6.70
2023-02-22T18:34:34.572Z,7.47
2023-02-22T18:40:12.884Z,7.20
2023-02-22T18:42:50.244Z,6.80
2023-02-22T18:46:01.650Z,6.83
2023-02-22T18:49:07.503Z,7.20
2023-02-22T18:51:47.997Z,6.13
2023-02-22T18:54:38.138Z,7.00
2023-02-22T18:57:13.989Z,8.37
2023-02-22T18:59:51.422Z,7.70
2023-02-22T19:02:23.882Z,8.30
2023-02-22T19:05:15.392Z,8.10
2023-02-22T19:07:52.517Z,7.30
2023-02-22T19:10:28.392Z,7.23
2023-02-22T19:13:14.248Z,9.40
2023-02-22T19:15:54.897Z,10.37
2023-02-22T19:18:34.739Z,11.20
2023-02-22T19:21:14.516Z,10.00
2023-02-22T19:24:04.560Z,11.43
2023-02-22T19:26:36.159Z,11.60
2023-02-22T19:29:22.305Z,12.57
2023-02-22T19:31:59.822Z,11.37
2023-02-22T19:34:38.144Z,11.50
2023-02-22T19:37:28.898Z,12.27
2023-02-22T19:40:02.411Z,10.80
2023-02-22T19:42:32.689Z,10.43
2023-02-22T19:45:05.670Z,10.10
2023-02-22T19:47:43.929Z,10.57
2023-02-22T19:50:25.774Z,12.03
2023-02-22T19:53:01.460Z,11.93
2023-02-22T19:55:36.373Z,12.03
2023-02-22T19:58:21.591Z,12.70
2023-02-22T20:00:56.302Z,12.43
2023-02-22T20:03:55.134Z,12.37
2023-02-22T20:06:29.186Z,12.87
2023-02-22T20:09:09.470Z,10.80
2023-02-22T20:11:49.993Z,12.73
2023-02-22T20:14:32.951Z,12.67
2023-02-22T20:17:08.393Z,12.37
2023-02-22T20:19:42.973Z,12.40
2023-02-22T20:22:19.224Z,12.20
2023-02-22T20:28:07.876Z,12.10
2023-02-22T20:30:48.849Z,12.00
2023-02-22T20:36:39.471Z,12.57
2023-02-22T20:39:24.720Z,13.10
2023-02-22T20:42:21.637Z,12.90
2023-02-22T20:45:08.642Z,12.90
2023-02-22T20:47:49.203Z,12.97
2023-02-22T20:50:27.639Z,13.37
2023-02-22T20:53:02.199Z,12.63
2023-02-22T20:55:45.111Z,13.97
2023-02-22T20:58:28.608Z,12.50
2023-02-22T21:01:18.987Z,13.30
2023-02-22T21:03:57.338Z,13.70
2023-02-22T21:06:34.328Z,13.67
2023-02-22T21:09:18.232Z,12.97
2023-02-22T21:11:54.196Z,13.40
2023-02-22T21:14:41.338Z,12.87
2023-02-22T21:17:13.275Z,12.80
2023-02-22T21:19:54.093Z,13.13
2023-02-22T21:22:27.064Z,14.17
2023-02-22T21:25:09.946Z,14.10
2023-02-22T21:27:51.591Z,13.77
2023-02-22T21:30:31.946Z,13.70
2023-02-22T21:33:33.104Z,13.50
2023-02-22T21:36:28.479Z,13.30
2023-02-22T21:39:13.724Z,14.67
2023-02-22T21:41:49.688Z,13.60
2023-02-22T21:44:21.663Z,13.90
2023-02-22T21:47:12.269Z,12.80
2023-02-22T21:49:49.292Z,13.47
2023-02-22T21:52:33.987Z,13.00
2023-02-22T21:55:09.471Z,13.70
2023-02-22T21:57:44.150Z,13.20
2023-02-22T22:00:17.979Z,13.37
2023-02-22T22:02:55.285Z,13.10
2023-02-22T22:05:34.077Z,13.13
2023-02-22T22:08:09.919Z,13.13
2023-02-22T22:10:49.079Z,12.67
2023-02-22T22:13:21.455Z,12.87
2023-02-22T22:15:51.488Z,12.97
2023-02-22T22:18:36.890Z,13.40
2023-02-22T22:21:18.971Z,12.50
2023-02-22T22:23:50.995Z,13.43
2023-02-22T22:26:21.878Z,12.80
2023-02-22T22:28:58.297Z,12.63
2023-02-22T22:31:36.182Z,13.57
2023-02-22T22:34:15.633Z,13.57
2023-02-22T22:36:47.646Z,13.17
2023-02-22T22:39:25.311Z,13.60
2023-02-22T22:41:57.849Z,13.33
2023-02-22T22:44:32.972Z,13.20
2023-02-22T22:47:02.841Z,14.43
2023-02-22T22:49:43.510Z,14.13
2023-02-22T22:52:15.474Z,13.53
2023-02-22T22:54:50.710Z,13.63
2023-02-22T22:57:23.760Z,13.70
2023-02-22T22:59:55.106Z,13.80
2023-02-22T23:02:32.845Z,14.50
2023-02-22T23:05:02.916Z,14.13
2023-02-22T23:07:32.005Z,14.20
2023-02-22T23:10:00.450Z,13.20
2023-02-22T23:12:32.797Z,13.37
2023-02-22T23:15:02.876Z,14.30
2023-02-22T23:17:43.709Z,13.60
2023-02-22T23:20:25.339Z,12.77
2023-02-22T23:22:59.174Z,14.63
2023-02-22T23:25:29.935Z,12.10
2023-02-22T23:27:59.287Z,14.20
2023-02-22T23:30:28.262Z,13.50
2023-02-22T23:33:01.244Z,13.10
2023-02-22T23:35:39.092Z,13.13
2023-02-22T23:38:11.001Z,12.80
2023-02-22T23:40:40.666Z,14.70
2023-02-22T23:43:12.558Z,13.30
2023-02-22T23:45:48.750Z,12.73
2023-02-22T23:48:20.825Z,13.00
2023-02-22T23:51:00.595Z,14.27
2023-02-22T23:53:32.667Z,13.57
2023-02-22T23:56:06.612Z,13.30
2023-02-22T23:58:40.875Z,13.00
